createdAt,value
2018-11-03T00:00:42.434Z,4.21
2018-11-03T00:01:45.535Z,4.25
2018-11-03T00:02:49.209Z,4.28
2018-11-03T00:03:52.882Z,4.30
2018-11-03T00:04:56.972Z,4.28
2018-11-03T00:06:00.198Z,4.15
2018-11-03T00:07:02.990Z,4.08
2018-11-03T00:08:06.871Z,4.05
2018-11-03T00:09:09.896Z,3.94
2018-11-03T00:10:13.136Z,3.86
2018-11-03T00:11:15.960Z,3.82
2018-11-03T00:12:19.756Z,3.84
2018-11-03T00:13:22.774Z,3.76
2018-11-03T00:14:25.661Z,3.76
2018-11-03T00:15:30.621Z,3.78
2018-11-03T00:16:33.815Z,3.81
2018-11-03T00:17:36.899Z,3.80
2018-11-03T00:18:40.881Z,3.76
2018-11-03T00:19:45.238Z,3.73
2018-11-03T00:20:49.272Z,3.74
2018-11-03T00:21:55.020Z,3.72
2018-11-03T00:22:58.110Z,3.77
2018-11-03T00:24:03.942Z,3.78
2018-11-03T00:25:06.698Z,3.78
2018-11-03T00:26:10.637Z,3.78
2018-11-03T00:27:14.319Z,3.80
2018-11-03T00:28:17.118Z,3.84
2018-11-03T00:29:20.512Z,3.84
2018-11-03T00:30:23.253Z,3.87
2018-11-03T00:31:27.020Z,3.85
2018-11-03T00:32:30.782Z,3.85
2018-11-03T00:33:35.290Z,3.81
2018-11-03T00:34:38.700Z,3.72
2018-11-03T00:35:43.479Z,3.66
2018-11-03T00:36:46.210Z,3.55
2018-11-03T00:37:51.402Z,3.58
2018-11-03T00:38:54.510Z,3.67
2018-11-03T00:39:59.578Z,3.68
2018-11-03T00:41:04.145Z,3.76
2018-11-03T00:42:07.298Z,3.69
2018-11-03T00:43:10.275Z,3.56
2018-11-03T00:44:14.009Z,3.48
2018-11-03T00:45:16.726Z,3.33
2018-11-03T00:46:20.216Z,3.28
2018-11-03T00:47:23.022Z,3.28
2018-11-03T00:48:27.312Z,3.32
2018-11-03T00:49:30.063Z,3.38
2018-11-03T00:50:35.885Z,3.45
2018-11-03T00:51:38.634Z,3.54
2018-11-03T00:52:42.380Z,3.54
2018-11-03T00:53:45.129Z,3.50
2018-11-03T00:54:48.314Z,3.50
2018-11-03T00:55:51.069Z,3.48
2018-11-03T00:56:54.719Z,3.45
2018-11-03T00:57:57.463Z,3.42
2018-11-03T00:59:00.207Z,3.40
2018-11-03T01:01:14.227Z,3.07
2018-11-03T01:02:17.034Z,2.96
2018-11-03T01:03:19.756Z,2.83
2018-11-03T01:04:22.970Z,2.79
2018-11-03T01:05:26.924Z,2.63
2018-11-03T01:06:30.606Z,2.64
2018-11-03T01:07:35.363Z,2.51
2018-11-03T01:08:41.140Z,2.53
2018-11-03T01:09:43.891Z,2.58
2018-11-03T01:10:46.672Z,2.63
2018-11-03T01:11:50.118Z,2.71
2018-11-03T01:12:54.152Z,2.76
2018-11-03T01:13:56.884Z,2.73
2018-11-03T01:14:59.683Z,2.77
2018-11-03T01:16:02.505Z,2.89
2018-11-03T01:17:06.983Z,2.99
2018-11-03T01:18:09.710Z,3.10
2018-11-03T01:19:12.448Z,3.16
2018-11-03T01:20:16.384Z,3.17
2018-11-03T01:21:20.347Z,3.19
2018-11-03T01:22:23.084Z,3.25
2018-11-03T01:23:25.813Z,3.27
2018-11-03T01:24:28.603Z,3.26
2018-11-03T01:25:31.771Z,3.28
2018-11-03T01:26:34.531Z,3.34
2018-11-03T01:27:37.344Z,3.37
2018-11-03T01:28:40.195Z,3.40
2018-11-03T01:29:43.129Z,3.45
2018-11-03T01:30:46.431Z,3.44
2018-11-03T01:31:49.576Z,3.50
2018-11-03T01:32:52.334Z,3.57
2018-11-03T01:33:57.299Z,3.60
2018-11-03T01:35:02.675Z,3.59
2018-11-03T01:36:06.371Z,3.65
2018-11-03T01:37:09.171Z,3.60
2018-11-03T01:38:13.090Z,3.56
2018-11-03T01:39:16.099Z,3.55
2018-11-03T01:40:18.826Z,3.44
2018-11-03T01:41:21.580Z,3.39
2018-11-03T01:42:24.336Z,3.38
2018-11-03T01:43:27.054Z,3.29
2018-11-03T01:44:30.251Z,3.27
2018-11-03T01:45:34.246Z,3.26
2018-11-03T01:46:37.310Z,3.28
2018-11-03T01:47:41.141Z,3.28
2018-11-03T01:48:44.343Z,3.25
2018-11-03T01:49:48.618Z,3.29
2018-11-03T01:50:52.241Z,3.21
2018-11-03T01:51:54.996Z,3.15
2018-11-03T01:52:57.746Z,3.20
2018-11-03T01:54:00.468Z,3.19
2018-11-03T01:55:03.376Z,3.17
2018-11-03T01:56:07.499Z,3.10
2018-11-03T01:57:10.793Z,3.20
2018-11-03T01:58:13.846Z,3.22
2018-11-03T01:59:17.202Z,3.21
2018-11-03T02:00:20.276Z,3.26
2018-11-03T02:01:23.330Z,3.25
2018-11-03T02:02:26.077Z,3.29
2018-11-03T02:03:29.104Z,3.38
2018-11-03T02:04:32.534Z,3.35
2018-11-03T02:05:35.736Z,3.27
2018-11-03T02:06:38.555Z,3.16
2018-11-03T02:07:41.460Z,3.16
2018-11-03T02:08:44.357Z,3.16
2018-11-03T02:09:49.523Z,3.23
2018-11-03T02:10:54.301Z,3.25
2018-11-03T02:11:59.255Z,3.26
2018-11-03T02:13:01.972Z,3.31
2018-11-03T02:14:04.721Z,3.32
2018-11-03T02:15:08.653Z,3.35
2018-11-03T02:16:11.732Z,3.28
2018-11-03T02:17:14.505Z,3.13
2018-11-03T02:18:19.692Z,3.10
2018-11-03T02:19:22.949Z,3.12
2018-11-03T02:20:25.935Z,3.13
2018-11-03T02:21:29.386Z,3.02
2018-11-03T02:22:32.900Z,3.00
2018-11-03T02:23:36.640Z,3.02
2018-11-03T02:24:39.828Z,3.02
2018-11-03T02:25:44.329Z,3.00
2018-11-03T02:26:47.410Z,3.04
2018-11-03T02:27:50.478Z,3.08
2018-11-03T02:28:53.972Z,3.12
2018-11-03T02:29:56.737Z,3.06
2018-11-03T02:30:59.492Z,3.02
2018-11-03T02:32:02.335Z,3.04
2018-11-03T02:33:05.548Z,3.03
2018-11-03T02:34:08.346Z,3.11
2018-11-03T02:35:13.270Z,3.11
2018-11-03T02:36:16.493Z,3.16
2018-11-03T02:37:19.952Z,3.18
2018-11-03T02:38:22.778Z,3.20
2018-11-03T02:39:26.455Z,3.19
2018-11-03T02:40:29.884Z,3.20
2018-11-03T02:41:33.917Z,3.06
2018-11-03T02:42:36.812Z,3.06
2018-11-03T02:43:39.658Z,2.88
2018-11-03T02:44:42.452Z,2.86
2018-11-03T02:45:45.801Z,2.91
2018-11-03T02:46:48.600Z,2.91
2018-11-03T02:47:51.890Z,2.77
2018-11-03T02:48:54.631Z,2.77
2018-11-03T02:49:57.397Z,2.74
2018-11-03T02:51:00.791Z,2.73
2018-11-03T02:52:03.558Z,2.73
2018-11-03T02:53:06.343Z,2.69
2018-11-03T02:54:09.108Z,2.68
2018-11-03T02:55:11.894Z,2.78
2018-11-03T02:56:14.658Z,2.84
2018-11-03T02:57:18.348Z,2.83
2018-11-03T02:58:21.090Z,2.82
2018-11-03T02:59:23.912Z,2.78
2018-11-03T03:00:27.953Z,2.68
2018-11-03T03:01:30.771Z,2.68
2018-11-03T03:02:33.590Z,2.66
2018-11-03T03:03:36.361Z,2.69
2018-11-03T03:04:39.115Z,2.65
2018-11-03T03:05:41.841Z,2.72
2018-11-03T03:06:45.633Z,2.69
2018-11-03T03:07:48.464Z,2.75
2018-11-03T03:08:51.302Z,2.73
2018-11-03T03:09:54.651Z,2.64
2018-11-03T03:10:58.307Z,2.65
2018-11-03T03:12:01.188Z,2.54
2018-11-03T03:13:04.420Z,2.54
2018-11-03T03:14:07.158Z,2.51
2018-11-03T03:15:10.243Z,2.62
2018-11-03T03:16:12.995Z,2.63
2018-11-03T03:17:15.798Z,2.66
2018-11-03T03:18:18.544Z,2.65
2018-11-03T03:19:21.759Z,2.60
2018-11-03T03:20:24.557Z,2.55
2018-11-03T03:21:27.366Z,2.48
2018-11-03T03:22:30.271Z,2.40
2018-11-03T03:23:33.050Z,2.45
2018-11-03T03:24:35.813Z,2.44
2018-11-03T03:28:57.930Z,2.49
2018-11-03T03:30:01.036Z,2.50
2018-11-03T03:31:04.095Z,2.43
2018-11-03T03:32:06.877Z,2.23
2018-11-03T03:33:09.922Z,2.11
2018-11-03T03:34:12.671Z,2.11
2018-11-03T03:35:15.582Z,2.15
2018-11-03T03:36:19.013Z,2.22
2018-11-03T03:37:22.506Z,2.14
2018-11-03T03:38:25.279Z,2.08
2018-11-03T03:39:28.012Z,2.17
2018-11-03T03:40:31.530Z,2.05
2018-11-03T03:41:34.581Z,2.04
2018-11-03T03:42:37.446Z,2.04
2018-11-03T03:43:42.467Z,1.94
2018-11-03T03:44:45.207Z,1.96
2018-11-03T03:45:48.622Z,2.03
2018-11-03T03:46:53.424Z,2.12
2018-11-03T03:47:57.566Z,2.16
2018-11-03T03:49:00.354Z,2.18
2018-11-03T03:50:07.365Z,2.17
2018-11-03T03:51:10.535Z,2.11
2018-11-03T03:52:13.394Z,1.89
2018-11-03T03:53:16.843Z,1.91
2018-11-03T03:54:20.003Z,1.93
2018-11-03T03:55:22.781Z,1.97
2018-11-03T03:56:26.336Z,2.03
2018-11-03T03:57:29.363Z,2.13
2018-11-03T03:58:33.993Z,2.21
2018-11-03T03:59:37.483Z,2.17
2018-11-03T04:00:40.463Z,2.16
2018-11-03T04:01:43.218Z,2.13
2018-11-03T04:02:46.509Z,2.04
2018-11-03T04:03:49.814Z,2.00
2018-11-03T04:04:52.963Z,1.91
2018-11-03T04:05:55.730Z,1.83
2018-11-03T04:06:59.255Z,1.75
2018-11-03T04:08:03.038Z,1.72
2018-11-03T04:09:06.682Z,1.74
2018-11-03T04:10:12.019Z,1.70
2018-11-03T04:11:15.909Z,1.73
2018-11-03T04:12:19.870Z,1.75
2018-11-03T04:13:23.045Z,1.66
2018-11-03T04:14:25.824Z,1.74
2018-11-03T04:15:30.452Z,1.76
2018-11-03T04:16:33.854Z,1.75
2018-11-03T04:17:38.140Z,1.73
2018-11-03T04:18:41.785Z,1.77
2018-11-03T04:19:45.529Z,1.73
2018-11-03T04:20:50.072Z,1.78
2018-11-03T04:21:53.132Z,1.78
2018-11-03T04:22:56.489Z,1.77
2018-11-03T04:24:00.173Z,1.86
2018-11-03T04:25:04.272Z,1.88
2018-11-03T04:26:08.009Z,1.78
2018-11-03T04:27:12.005Z,1.67
2018-11-03T04:28:16.107Z,1.50
2018-11-03T04:29:18.908Z,1.41
2018-11-03T04:30:22.501Z,1.35
2018-11-03T04:31:25.276Z,1.39
2018-11-03T04:32:28.974Z,1.40
2018-11-03T04:33:31.978Z,1.35
2018-11-03T04:34:35.010Z,1.32
2018-11-03T04:35:39.172Z,1.37
2018-11-03T04:36:42.500Z,1.42
2018-11-03T04:37:45.614Z,1.45
2018-11-03T04:38:48.378Z,1.58
2018-11-03T04:39:51.166Z,1.60
2018-11-03T04:40:54.238Z,1.64
2018-11-03T04:41:57.020Z,1.63
2018-11-03T04:42:59.761Z,1.64
2018-11-03T04:44:02.716Z,1.67
2018-11-03T04:45:05.712Z,1.66
2018-11-03T04:46:08.491Z,1.59
2018-11-03T04:47:12.279Z,1.48
2018-11-03T04:48:15.230Z,1.44
2018-11-03T04:49:18.272Z,1.37
2018-11-03T04:50:20.999Z,1.38
2018-11-03T04:51:23.795Z,1.34
2018-11-03T04:52:26.557Z,1.31
2018-11-03T04:53:30.556Z,1.27
2018-11-03T04:54:33.545Z,1.17
2018-11-03T04:55:36.716Z,1.22
2018-11-03T04:56:39.480Z,1.30
2018-11-03T04:57:43.276Z,1.40
2018-11-03T04:58:46.963Z,1.51
2018-11-03T04:59:50.455Z,1.59
2018-11-03T05:00:53.222Z,1.62
2018-11-03T05:01:56.054Z,1.63
2018-11-03T05:02:58.821Z,1.55
2018-11-03T05:04:01.568Z,1.47
2018-11-03T05:05:04.351Z,1.38
2018-11-03T05:06:07.417Z,1.33
2018-11-03T05:07:10.320Z,1.29
2018-11-03T05:08:13.111Z,1.35
2018-11-03T05:09:15.844Z,1.38
2018-11-03T05:10:18.660Z,1.41
2018-11-03T05:11:22.634Z,1.47
2018-11-03T05:12:25.981Z,1.57
2018-11-03T05:13:28.726Z,1.51
2018-11-03T05:14:31.479Z,1.46
2018-11-03T05:15:34.669Z,1.38
2018-11-03T05:16:37.630Z,1.32
2018-11-03T05:17:41.320Z,1.34
2018-11-03T05:18:44.468Z,1.28
2018-11-03T05:19:48.024Z,1.30
2018-11-03T05:20:50.827Z,1.30
2018-11-03T05:21:53.559Z,1.31
2018-11-03T05:22:56.729Z,1.28
2018-11-03T05:24:01.434Z,1.09
2018-11-03T05:25:06.676Z,1.14
2018-11-03T05:26:10.472Z,1.20
2018-11-03T05:27:13.275Z,1.23
2018-11-03T05:28:16.097Z,1.27
2018-11-03T05:29:18.862Z,1.30
2018-11-03T05:30:22.339Z,1.26
2018-11-03T05:31:25.682Z,1.23
2018-11-03T05:32:28.327Z,1.23
2018-11-03T05:33:32.693Z,1.28
2018-11-03T05:34:35.415Z,1.31
2018-11-03T05:35:38.184Z,1.30
2018-11-03T05:36:40.965Z,1.33
2018-11-03T05:37:44.084Z,1.27
2018-11-03T05:38:48.625Z,1.31
2018-11-03T05:39:51.418Z,1.26
2018-11-03T05:40:54.250Z,1.16
2018-11-03T05:41:57.016Z,1.21
2018-11-03T05:42:59.818Z,1.30
2018-11-03T05:44:03.036Z,1.31
2018-11-03T05:45:05.766Z,1.33
2018-11-03T05:46:08.658Z,1.39
2018-11-03T05:47:11.801Z,1.43
2018-11-03T05:48:14.589Z,1.42
2018-11-03T05:49:17.848Z,1.48
2018-11-03T05:50:20.621Z,1.50
2018-11-03T05:51:23.341Z,1.42
2018-11-03T05:52:26.122Z,1.46
2018-11-03T05:53:29.513Z,1.50
2018-11-03T05:54:35.302Z,1.51
2018-11-03T05:55:38.035Z,1.51
2018-11-03T05:56:41.090Z,1.43
2018-11-03T05:57:45.622Z,1.30
2018-11-03T05:58:49.212Z,1.24
2018-11-03T05:59:51.999Z,1.30
2018-11-03T06:00:54.792Z,1.34
2018-11-03T06:01:57.541Z,1.27
2018-11-03T06:03:00.884Z,1.31
2018-11-03T06:04:03.621Z,1.29
2018-11-03T06:05:06.384Z,1.25
2018-11-03T06:06:09.111Z,1.29
2018-11-03T06:07:11.886Z,1.27
2018-11-03T06:08:15.035Z,1.26
2018-11-03T06:10:52.668Z,1.27
2018-11-03T06:11:55.442Z,1.27
2018-11-03T06:13:00.682Z,1.26
2018-11-03T06:14:03.508Z,1.25
2018-11-03T06:15:06.303Z,1.27
2018-11-03T06:16:09.500Z,1.28
2018-11-03T06:17:12.250Z,1.26
2018-11-03T06:18:15.214Z,1.29
2018-11-03T06:19:18.082Z,1.33
2018-11-03T06:20:20.925Z,1.42
2018-11-03T06:21:23.838Z,1.40
2018-11-03T06:22:27.084Z,1.41
2018-11-03T06:23:30.285Z,1.33
2018-11-03T06:24:33.808Z,1.25
2018-11-03T06:25:36.954Z,1.23
2018-11-03T06:26:40.790Z,1.25
2018-11-03T06:27:44.216Z,1.19
2018-11-03T06:28:47.342Z,1.21
2018-11-03T06:29:50.622Z,1.21
2018-11-03T06:43:56.321Z,1.23
2018-11-03T06:44:59.399Z,1.02
2018-11-03T06:46:03.139Z,1.06
2018-11-03T06:47:05.910Z,0.93
2018-11-03T06:48:08.702Z,0.92
2018-11-03T06:49:17.334Z,0.92
2018-11-03T06:50:20.924Z,0.93
2018-11-03T06:51:23.693Z,0.93
2018-11-03T06:52:26.513Z,1.07
2018-11-03T06:53:30.200Z,1.09
2018-11-03T06:54:32.949Z,1.04
2018-11-03T06:55:36.180Z,0.89
2018-11-03T06:56:38.946Z,0.77
2018-11-03T06:57:41.690Z,0.67
2018-11-03T06:58:44.472Z,0.69
2018-11-03T06:59:47.260Z,0.76
2018-11-03T07:00:51.690Z,0.88
2018-11-03T07:01:54.742Z,0.94
2018-11-03T07:02:57.579Z,1.11
2018-11-03T07:04:04.765Z,1.07
2018-11-03T07:05:07.761Z,1.03
2018-11-03T07:06:10.622Z,1.00
2018-11-03T07:07:13.393Z,0.78
2018-11-03T07:08:16.543Z,0.77
2018-11-03T07:09:19.416Z,0.85
2018-11-03T07:10:22.294Z,0.86
2018-11-03T07:11:25.196Z,0.85
2018-11-03T07:12:28.291Z,0.83
2018-11-03T07:13:30.889Z,0.74
2018-11-03T07:14:34.118Z,0.80
2018-11-03T07:15:36.906Z,0.89
2018-11-03T07:16:40.218Z,1.00
2018-11-03T07:17:43.812Z,1.04
2018-11-03T07:18:47.535Z,1.04
2018-11-03T07:19:50.340Z,1.07
2018-11-03T07:20:53.518Z,1.03
2018-11-03T07:21:56.315Z,0.98
2018-11-03T07:22:59.199Z,0.98
2018-11-03T07:24:02.584Z,0.96
2018-11-03T07:25:05.367Z,0.96
2018-11-03T07:26:09.938Z,0.90
2018-11-03T07:27:13.007Z,1.00
2018-11-03T07:28:15.795Z,1.07
2018-11-03T07:29:18.635Z,1.13
2018-11-03T07:30:21.998Z,1.19
2018-11-03T07:31:24.790Z,1.28
2018-11-03T07:32:30.244Z,1.33
2018-11-03T07:33:35.180Z,1.30
2018-11-03T07:34:38.237Z,1.33
2018-11-03T07:35:45.844Z,1.27
2018-11-03T07:36:53.617Z,1.23
2018-11-03T07:37:57.779Z,1.23
2018-11-03T07:39:00.611Z,1.11
2018-11-03T07:40:09.239Z,0.98
2018-11-03T07:41:13.671Z,1.04
2018-11-03T07:42:16.412Z,1.15
2018-11-03T07:43:20.546Z,1.22
2018-11-03T07:44:23.316Z,1.18
2018-11-03T07:45:26.761Z,1.19
2018-11-03T07:46:29.831Z,1.20
2018-11-03T07:47:32.720Z,1.28
2018-11-03T07:48:36.092Z,1.37
2018-11-03T07:49:39.696Z,1.38
2018-11-03T07:50:46.682Z,1.43
2018-11-03T07:51:51.450Z,1.48
2018-11-03T07:52:54.455Z,1.59
2018-11-03T07:53:57.484Z,1.66
2018-11-03T07:55:00.830Z,1.70
2018-11-03T07:56:03.578Z,1.77
2018-11-03T07:57:07.815Z,1.90
2018-11-03T07:58:11.087Z,1.95
2018-11-03T07:59:20.687Z,2.06
2018-11-03T08:00:23.784Z,2.19
2018-11-03T08:01:27.418Z,2.31
2018-11-03T08:02:30.397Z,2.25
2018-11-03T08:03:33.767Z,2.27
2018-11-03T08:04:37.395Z,2.19
2018-11-03T08:05:40.753Z,2.10
2018-11-03T08:06:44.181Z,2.15
2018-11-03T08:07:46.988Z,2.09
2018-11-03T08:08:49.860Z,2.05
2018-11-03T08:09:53.551Z,2.10
2018-11-03T08:10:56.653Z,2.29
2018-11-03T08:11:59.600Z,2.39
2018-11-03T08:13:04.129Z,2.45
2018-11-03T08:14:07.948Z,2.52
2018-11-03T08:15:11.494Z,2.41
2018-11-03T08:16:14.291Z,2.19
2018-11-03T08:17:20.601Z,2.09
2018-11-03T08:18:23.932Z,1.91
2018-11-03T08:19:26.722Z,1.83
2018-11-03T08:20:30.792Z,1.75
2018-11-03T08:21:35.667Z,1.80
2018-11-03T08:22:38.482Z,1.87
2018-11-03T08:23:41.804Z,1.97
2018-11-03T08:24:44.559Z,2.06
2018-11-03T08:25:47.372Z,2.17
2018-11-03T08:26:50.114Z,2.32
2018-11-03T08:27:52.872Z,2.46
2018-11-03T08:28:55.983Z,2.59
2018-11-03T08:29:59.332Z,2.72
2018-11-03T08:31:03.351Z,2.76
2018-11-03T08:32:10.638Z,2.93
2018-11-03T08:33:13.686Z,3.08
2018-11-03T08:34:21.374Z,3.08
2018-11-03T08:35:25.751Z,3.11
2018-11-03T08:36:35.549Z,3.20
2018-11-03T08:37:39.588Z,3.22
2018-11-03T08:38:47.736Z,3.29
2018-11-03T08:39:51.406Z,3.28
2018-11-03T08:40:55.593Z,3.26
2018-11-03T08:41:58.399Z,3.13
2018-11-03T08:43:02.488Z,3.17
2018-11-03T08:44:05.490Z,3.23
2018-11-03T08:45:09.689Z,3.44
2018-11-03T08:46:13.397Z,3.43
2018-11-03T08:47:17.454Z,2.65
2018-11-03T08:48:21.472Z,2.33
2018-11-03T08:49:25.847Z,2.25
2018-11-03T08:50:28.644Z,2.34
2018-11-03T08:51:32.377Z,2.47
2018-11-03T08:52:35.477Z,2.24
2018-11-03T08:53:39.489Z,2.11
2018-11-03T08:54:47.044Z,2.28
2018-11-03T08:55:57.294Z,2.48
2018-11-03T08:57:01.147Z,2.55
2018-11-03T08:58:05.974Z,2.57
2018-11-03T08:59:14.246Z,2.27
2018-11-03T09:00:22.748Z,2.55
2018-11-03T09:01:35.419Z,2.69
2018-11-03T09:02:43.291Z,2.25
2018-11-03T09:03:46.678Z,2.49
2018-11-03T09:04:54.312Z,2.56
2018-11-03T09:06:00.979Z,2.04
2018-11-03T09:07:04.557Z,1.83
2018-11-03T09:08:08.313Z,1.62
2018-11-03T09:09:13.258Z,1.57
2018-11-03T09:10:17.462Z,1.86
2018-11-03T09:11:20.318Z,2.12
2018-11-03T09:12:23.052Z,2.36
2018-11-03T09:13:27.370Z,2.44
2018-11-03T09:14:30.677Z,2.50
2018-11-03T09:15:33.472Z,2.42
2018-11-03T09:16:39.969Z,1.65
2018-11-03T09:17:43.702Z,1.71
2018-11-03T09:18:47.531Z,2.10
2018-11-03T09:19:52.061Z,2.47
2018-11-03T09:21:00.790Z,2.54
2018-11-03T09:22:08.419Z,2.73
2018-11-03T09:24:23.937Z,3.16
2018-11-03T09:25:31.674Z,3.26
2018-11-03T09:26:41.606Z,3.14
2018-11-03T09:27:48.370Z,3.19
2018-11-03T09:28:51.357Z,3.46
2018-11-03T09:29:58.154Z,3.71
2018-11-03T09:31:03.058Z,4.20
2018-11-03T09:32:11.946Z,4.61
2018-11-03T09:33:17.633Z,5.20
2018-11-03T09:34:23.279Z,5.77
2018-11-03T09:35:28.237Z,6.48
2018-11-03T09:36:34.299Z,7.21
2018-11-03T09:37:39.347Z,7.22
2018-11-03T09:38:42.402Z,7.29
2018-11-03T09:39:45.852Z,7.31
2018-11-03T09:40:49.407Z,7.67
2018-11-03T09:41:53.228Z,8.00
2018-11-03T09:48:26.487Z,7.71
2018-11-03T09:49:37.559Z,8.67
2018-11-03T09:50:41.809Z,8.97
2018-11-03T09:51:44.561Z,8.74
2018-11-03T09:52:47.516Z,7.81
2018-11-03T09:53:52.228Z,7.68
2018-11-03T09:55:01.284Z,8.00
2018-11-03T09:56:05.109Z,7.98
2018-11-03T09:57:08.361Z,7.71
2018-11-03T09:58:16.260Z,7.60
2018-11-03T09:59:19.290Z,7.52
2018-11-03T10:00:22.662Z,7.72
2018-11-03T10:01:25.845Z,8.07
2018-11-03T10:02:28.669Z,8.70
2018-11-03T10:03:34.060Z,8.21
2018-11-03T10:04:37.301Z,8.46
2018-11-03T10:05:40.589Z,8.26
2018-11-03T10:06:46.763Z,9.12
2018-11-03T10:07:50.291Z,10.14
2018-11-03T10:08:54.904Z,10.61
2018-11-03T10:09:58.664Z,10.14
2018-11-03T10:11:05.134Z,9.92
2018-11-03T10:12:09.920Z,9.84
2018-11-03T10:13:13.242Z,8.29
2018-11-03T10:14:16.804Z,8.86
2018-11-03T10:15:21.013Z,9.47
2018-11-03T10:16:24.383Z,9.49
2018-11-03T10:17:29.881Z,9.76
2018-11-03T10:20:28.660Z,9.76
2018-11-03T10:21:32.462Z,9.36
2018-11-03T10:22:35.858Z,9.63
2018-11-03T10:23:40.181Z,10.35
2018-11-03T10:24:45.163Z,10.91
2018-11-03T10:25:48.364Z,11.35
2018-11-03T10:26:52.354Z,11.62
2018-11-03T10:27:55.150Z,11.52
2018-11-03T10:28:59.442Z,11.45
2018-11-03T10:30:03.497Z,11.46
2018-11-03T10:31:11.373Z,11.42
2018-11-03T10:32:15.388Z,11.21
2018-11-03T10:33:20.429Z,11.62
2018-11-03T10:34:24.928Z,12.21
2018-11-03T10:36:37.247Z,12.44
2018-11-03T10:37:42.583Z,12.62
2018-11-03T10:38:51.168Z,12.76
2018-11-03T10:39:55.550Z,13.09
2018-11-03T10:41:03.478Z,12.88
2018-11-03T10:42:11.674Z,12.84
2018-11-03T10:43:21.206Z,12.58
2018-11-03T10:44:26.314Z,11.48
2018-11-03T10:45:33.577Z,11.56
2018-11-03T10:46:37.052Z,11.75
2018-11-03T10:47:42.694Z,11.96
2018-11-03T10:48:46.164Z,11.75
2018-11-03T10:49:49.519Z,11.27
2018-11-03T10:50:53.335Z,11.04
2018-11-03T10:51:57.488Z,11.36
2018-11-03T10:53:01.752Z,11.83
2018-11-03T10:54:05.644Z,12.02
2018-11-03T10:55:10.799Z,12.23
2018-11-03T10:56:13.924Z,11.56
2018-11-03T10:57:17.018Z,11.10
2018-11-03T10:58:23.290Z,10.61
2018-11-03T10:59:39.300Z,9.99
2018-11-03T11:00:47.658Z,10.69
2018-11-03T11:01:57.049Z,11.57
2018-11-03T11:03:04.897Z,11.47
2018-11-03T11:04:13.022Z,10.82
2018-11-03T11:05:20.656Z,11.52
2018-11-03T11:06:28.463Z,12.36
2018-11-03T11:07:36.311Z,13.19
2018-11-03T11:08:44.595Z,13.60
2018-11-03T11:09:52.419Z,12.92
2018-11-03T11:11:02.291Z,11.54
2018-11-03T11:12:10.226Z,11.77
2018-11-03T11:13:20.477Z,11.96
2018-11-03T11:14:23.379Z,12.18
2018-11-03T11:15:26.157Z,12.08
2018-11-03T11:16:29.849Z,12.26
2018-11-03T11:17:33.829Z,12.79
2018-11-03T11:18:37.034Z,12.79
2018-11-03T11:19:39.939Z,13.19
2018-11-03T11:20:43.353Z,12.73
2018-11-03T11:21:47.712Z,13.03
2018-11-03T11:22:51.098Z,12.90
2018-11-03T11:23:54.728Z,12.57
2018-11-03T11:24:58.673Z,12.75
2018-11-03T11:26:05.048Z,12.56
2018-11-03T11:27:08.616Z,12.33
2018-11-03T11:28:13.671Z,12.06
2018-11-03T11:29:16.580Z,12.74
2018-11-03T11:43:09.850Z,13.92
2018-11-03T11:44:13.105Z,14.06
2018-11-03T11:45:18.459Z,14.40
2018-11-03T11:46:21.523Z,14.99
2018-11-03T11:47:26.726Z,15.46
2018-11-03T11:48:32.231Z,15.64
2018-11-03T11:49:35.882Z,15.65
2018-11-03T11:50:38.658Z,15.57
2018-11-03T11:51:43.148Z,15.60
2018-11-03T11:52:47.249Z,15.50
2018-11-03T11:53:51.216Z,14.66
2018-11-03T11:54:56.463Z,14.49
2018-11-03T11:56:00.792Z,14.29
2018-11-03T11:57:05.606Z,13.91
2018-11-03T11:58:10.403Z,13.96
2018-11-03T11:59:15.174Z,14.69
2018-11-03T12:00:18.663Z,15.17
2018-11-03T12:01:22.469Z,14.29
2018-11-03T12:02:25.850Z,14.98
2018-11-03T12:03:31.593Z,15.43
2018-11-03T12:04:34.386Z,15.04
2018-11-03T12:05:40.230Z,14.69
2018-11-03T12:06:47.532Z,14.52
2018-11-03T12:07:51.606Z,14.26
2018-11-03T12:08:54.369Z,14.37
2018-11-03T12:09:58.545Z,14.48
2018-11-03T12:11:21.442Z,14.28
2018-11-03T12:12:31.106Z,14.37
2018-11-03T12:13:38.347Z,13.63
2018-11-03T12:14:46.709Z,12.64
2018-11-03T12:15:52.343Z,12.63
2018-11-03T12:16:56.770Z,12.79
2018-11-03T12:18:00.469Z,12.62
2018-11-03T12:19:03.688Z,12.64
2018-11-03T12:20:09.667Z,13.02
2018-11-03T12:21:14.430Z,13.54
2018-11-03T12:22:17.262Z,14.18
2018-11-03T12:23:23.310Z,14.44
2018-11-03T12:24:26.741Z,13.96
2018-11-03T12:25:33.159Z,14.10
2018-11-03T12:26:43.749Z,14.51
2018-11-03T12:27:47.506Z,15.17
2018-11-03T12:28:51.519Z,15.81
2018-11-03T12:29:55.935Z,15.45
2018-11-03T12:31:00.760Z,14.98
2018-11-03T12:32:04.794Z,14.07
2018-11-03T12:33:08.829Z,13.54
2018-11-03T12:34:15.767Z,12.92
2018-11-03T12:35:19.015Z,12.22
2018-11-03T12:36:21.950Z,12.34
2018-11-03T12:37:24.739Z,12.47
2018-11-03T12:38:34.444Z,12.39
2018-11-03T12:39:38.956Z,12.62
2018-11-03T12:40:41.755Z,12.06
2018-11-03T12:41:46.156Z,12.57
2018-11-03T12:42:49.955Z,13.21
2018-11-03T12:43:54.781Z,12.83
2018-11-03T12:44:57.707Z,12.60
2018-11-03T12:46:04.329Z,12.84
2018-11-03T12:47:20.055Z,13.39
2018-11-03T12:48:24.590Z,14.04
2018-11-03T12:49:27.567Z,13.61
2018-11-03T12:50:30.946Z,13.02
2018-11-03T12:51:34.353Z,12.83
2018-11-03T12:52:38.166Z,12.77
2018-11-03T12:53:42.862Z,12.71
2018-11-03T12:54:51.320Z,13.02
2018-11-03T12:55:56.682Z,13.36
2018-11-03T12:57:04.145Z,12.68
2018-11-03T12:58:08.077Z,12.04
2018-11-03T12:59:11.946Z,11.54
2018-11-03T13:00:16.987Z,11.43
2018-11-03T13:01:19.790Z,11.65
2018-11-03T13:02:23.179Z,12.42
2018-11-03T13:03:25.915Z,12.34
2018-11-03T13:04:29.168Z,12.01
2018-11-03T13:05:35.117Z,11.92
2018-11-03T13:06:40.159Z,12.31
2018-11-03T13:07:44.457Z,13.09
2018-11-03T13:10:00.417Z,12.41
2018-11-03T13:11:10.830Z,12.41
2018-11-03T13:12:16.094Z,12.69
2018-11-03T13:13:19.522Z,13.35
2018-11-03T13:14:25.348Z,12.49
2018-11-03T13:15:29.554Z,12.61
2018-11-03T13:16:33.228Z,12.55
2018-11-03T13:17:38.631Z,12.42
2018-11-03T13:18:44.392Z,12.75
2018-11-03T13:21:04.409Z,13.49
2018-11-03T13:22:08.709Z,13.87
2018-11-03T13:23:12.781Z,13.41
2018-11-03T13:24:15.887Z,12.69
2018-11-03T13:25:20.354Z,12.31
2018-11-03T13:26:23.770Z,12.33
2018-11-03T13:27:27.496Z,12.70
2018-11-03T13:28:32.604Z,12.48
2018-11-03T13:29:36.892Z,12.51
2018-11-03T13:30:40.221Z,12.82
2018-11-03T13:31:43.271Z,13.13
2018-11-03T13:32:46.403Z,12.62
2018-11-03T13:33:50.315Z,12.23
2018-11-03T13:34:55.554Z,12.29
2018-11-03T13:36:14.271Z,12.49
2018-11-03T13:37:20.707Z,12.85
2018-11-03T13:38:24.639Z,13.07
2018-11-03T13:39:27.378Z,12.46
2018-11-03T13:40:31.319Z,12.45
2018-11-03T13:41:34.050Z,12.62
2018-11-03T13:42:36.786Z,12.81
2018-11-03T13:43:39.529Z,12.67
2018-11-03T13:44:42.270Z,12.98
2018-11-03T13:45:46.792Z,13.47
2018-11-03T13:46:50.443Z,13.84
2018-11-03T13:47:53.639Z,14.02
2018-11-03T13:48:58.417Z,14.10
2018-11-03T13:50:01.242Z,14.01
2018-11-03T13:51:04.668Z,13.72
2018-11-03T13:52:07.800Z,13.79
2018-11-03T13:53:12.291Z,13.99
2018-11-03T13:54:15.191Z,14.11
2018-11-03T13:55:18.157Z,14.08
2018-11-03T13:57:36.964Z,14.12
2018-11-03T13:58:39.727Z,13.42
2018-11-03T13:59:42.674Z,13.28
2018-11-03T14:00:47.381Z,13.41
2018-11-03T14:01:50.261Z,13.40
2018-11-03T14:02:55.187Z,13.69
2018-11-03T14:03:58.342Z,13.80
2018-11-03T14:05:22.845Z,13.65
2018-11-03T14:07:40.701Z,13.74
2018-11-03T14:08:43.716Z,13.76
2018-11-03T14:09:46.525Z,13.80
2018-11-03T14:12:07.493Z,13.75
2018-11-03T14:13:11.074Z,13.82
2018-11-03T14:15:31.750Z,14.01
2018-11-03T14:16:35.161Z,14.12
2018-11-03T14:17:38.010Z,14.18
2018-11-03T14:18:41.595Z,14.01
2018-11-03T14:19:44.720Z,13.93
2018-11-03T14:20:48.528Z,14.09
2018-11-03T14:21:51.396Z,14.34
2018-11-03T14:22:54.239Z,14.44
2018-11-03T14:23:58.307Z,14.20
2018-11-03T14:25:02.622Z,14.17
2018-11-03T14:26:06.426Z,14.07
2018-11-03T14:27:13.759Z,14.32
2018-11-03T14:28:17.254Z,14.49
2018-11-03T14:29:20.295Z,14.57
2018-11-03T14:30:22.974Z,14.65
2018-11-03T14:31:27.439Z,14.61
2018-11-03T14:32:30.660Z,14.69
2018-11-03T14:33:33.496Z,14.63
2018-11-03T14:34:36.964Z,14.67
2018-11-03T14:35:41.744Z,14.25
2018-11-03T14:36:45.878Z,14.19
2018-11-03T14:37:49.251Z,13.96
2018-11-03T14:38:53.476Z,13.43
2018-11-03T14:39:57.532Z,13.06
2018-11-03T14:41:02.630Z,12.91
2018-11-03T14:42:06.235Z,13.06
2018-11-03T14:43:09.071Z,13.08
2018-11-03T14:44:12.318Z,12.81
2018-11-03T14:45:16.665Z,12.55
2018-11-03T14:46:20.564Z,11.87
2018-11-03T14:47:24.073Z,11.36
2018-11-03T14:48:28.430Z,11.07
2018-11-03T14:49:31.247Z,11.16
2018-11-03T14:50:35.297Z,11.24
2018-11-03T14:51:39.014Z,11.45
2018-11-03T14:52:42.900Z,11.95